Time,TemperatureF,DewpointF,PressureIn,WindDirection,WindDirectionDegrees,WindSpeedMPH,WindSpeedGustMPH,Humidity,HourlyPrecipIn,Conditions,Clouds,dailyrainin,SoftwareType,DateUTC
2013-06-05 00:02:00,61.9,59.2,30.10,SSE,151,0.0,1.0,91,0.00,,,0.00,Wunderground v.1.15,2013-06-05 04:02:00,
2013-06-05 00:03:00,61.9,59.2,30.10,SSE,151,0.0,1.0,91,0.00,,,0.00,Wunderground v.1.15,2013-06-05 04:03:00,
2013-06-05 00:04:00,61.8,59.1,30.10,SSE,151,0.0,1.0,91,0.00,,,0.00,Wunderground v.1.15,2013-06-05 04:04:00,
2013-06-05 00:05:00,61.8,59.1,30.10,SSE,151,0.0,1.0,91,0.00,,,0.00,Wunderground v.1.15,2013-06-05 04:05:00,
2013-06-05 00:11:00,61.6,58.9,30.10,SSE,151,0.0,1.0,91,0.00,,,0.00,Wunderground v.1.15,2013-06-05 04:11:00,
2013-06-05 00:17:00,61.5,58.8,30.10,SSE,151,0.0,1.0,91,0.00,,,0.00,Wunderground v.1.15,2013-06-05 04:17:00,
2013-06-05 00:23:00,61.4,58.7,30.10,SSE,151,0.0,1.0,91,0.00,,,0.00,Wunderground v.1.15,2013-06-05 04:23:00,
2013-06-05 00:29:00,61.1,58.1,30.10,SSE,151,0.0,1.0,90,0.00,,,0.00,Wunderground v.1.15,2013-06-05 04:29:00,
2013-06-05 00:35:00,60.8,57.5,30.10,SSE,151,0.0,1.0,89,0.00,,,0.00,Wunderground v.1.15,2013-06-05 04:35:00,
2013-06-05 00:40:00,60.6,57.0,30.10,SSE,151,0.0,1.0,88,0.00,,,0.00,Wunderground v.1.15,2013-06-05 04:40:00,
2013-06-05 00:47:00,60.5,56.6,30.10,SSE,151,0.0,1.0,87,0.00,,,0.00,Wunderground v.1.15,2013-06-05 04:47:00,
2013-06-05 00:52:00,60.7,57.1,30.10,SSE,151,1.0,1.0,88,0.00,,,0.00,Wunderground v.1.15,2013-06-05 04:52:00,
2013-06-05 00:58:00,60.7,57.1,30.10,SSE,151,1.0,1.0,88,0.00,,,0.00,Wunderground v.1.15,2013-06-05 04:58:00,
2013-06-05 01:04:00,60.7,57.1,30.10,SSE,151,0.0,1.0,88,0.00,,,0.00,Wunderground v.1.15,2013-06-05 05:04:00,
2013-06-05 01:10:00,60.7,57.1,30.10,SSE,151,0.0,1.0,88,0.00,,,0.00,Wunderground v.1.15,2013-06-05 05:10:00,
2013-06-05 01:16:00,60.7,57.4,30.10,SSE,151,0.0,1.0,89,0.00,,,0.00,Wunderground v.1.15,2013-06-05 05:16:00,
2013-06-05 01:22:00,60.6,57.3,30.10,SSE,151,0.0,1.0,89,0.00,,,0.00,Wunderground v.1.15,2013-06-05 05:22:00,
2013-06-05 01:28:00,60.6,57.7,30.09,SSE,151,1.0,1.0,90,0.00,,,0.00,Wunderground v.1.15,2013-06-05 05:28:00,
2013-06-05 01:33:00,60.6,57.7,30.09,SSE,151,0.0,1.0,90,0.00,,,0.00,Wunderground v.1.15,2013-06-05 05:33:00,
2013-06-05 01:39:00,60.4,57.5,30.09,SSE,151,0.0,1.0,90,0.00,,,0.00,Wunderground v.1.15,2013-06-05 05:39:00,
2013-06-05 01:45:00,60.4,57.8,30.09,SSE,151,0.0,1.0,91,0.00,,,0.00,Wunderground v.1.15,2013-06-05 05:45:00,
2013-06-05 01:51:00,60.3,57.7,30.10,SSE,151,0.0,1.0,91,0.00,,,0.00,Wunderground v.1.15,2013-06-05 05:51:00,
2013-06-05 01:57:00,60.2,57.6,30.10,SSE,151,0.0,1.0,91,0.00,,,0.00,Wunderground v.1.15,2013-06-05 05:57:00,
2013-06-05 02:02:00,60.1,57.8,30.09,SSE,151,0.0,1.0,92,0.00,,,0.00,Wunderground v.1.15,2013-06-05 06:02:00,
2013-06-05 02:08:00,60.0,57.4,30.10,SSE,151,1.0,1.0,91,0.00,,,0.00,Wunderground v.1.15,2013-06-05 06:08:00,
2013-06-05 02:14:00,59.8,57.5,30.10,SSE,151,1.0,1.0,92,0.00,,,0.00,Wunderground v.1.15,2013-06-05 06:14:00,
2013-06-05 02:19:00,59.8,57.5,30.09,SSE,151,1.0,1.0,92,0.00,,,0.00,Wunderground v.1.15,2013-06-05 06:19:00,
2013-06-05 02:25:00,59.6,57.3,30.09,SSE,151,0.0,1.0,92,0.00,,,0.00,Wunderground v.1.15,2013-06-05 06:25:00,
2013-06-05 02:30:00,59.5,57.2,30.09,SSE,151,0.0,1.0,92,0.00,,,0.00,Wunderground v.1.15,2013-06-05 06:30:00,
2013-06-05 02:36:00,59.4,57.1,30.10,SSE,151,0.0,1.0,92,0.00,,,0.00,Wunderground v.1.15,2013-06-05 06:36:00,
2013-06-05 02:42:00,59.3,57.0,30.09,SSE,151,0.0,1.0,92,0.00,,,0.00,Wunderground v.1.15,2013-06-05 06:42:00,
2013-06-05 02:48:00,59.2,56.9,30.09,SSE,151,0.0,1.0,92,0.00,,,0.00,Wunderground v.1.15,2013-06-05 06:48:00,
2013-06-05 02:54:00,59.1,56.8,30.09,SSE,151,0.0,1.0,92,0.00,,,0.00,Wunderground v.1.15,2013-06-05 06:54:00,
2013-06-05 03:00:00,59.1,56.8,30.09,SSE,151,0.0,1.0,92,0.00,,,0.00,Wunderground v.1.15,2013-06-05 07:00:00,
2013-06-05 03:06:00,59.0,56.7,30.09,SSE,151,0.0,1.0,92,0.00,,,0.00,Wunderground v.1.15,2013-06-05 07:06:00,
2013-06-05 03:12:00,58.9,56.6,30.09,SSE,151,0.0,0.0,92,0.00,,,0.00,Wunderground v.1.15,2013-06-05 07:12:00,
2013-06-05 03:17:00,58.9,56.6,30.09,SSE,151,0.0,0.0,92,0.00,,,0.00,Wunderground v.1.15,2013-06-05 07:17:00,
2013-06-05 03:23:00,58.9,56.6,30.09,SSE,151,0.0,0.0,92,0.00,,,0.00,Wunderground v.1.15,2013-06-05 07:23:00,
2013-06-05 03:29:00,58.9,56.9,30.10,SSE,151,0.0,0.0,93,0.00,,,0.00,Wunderground v.1.15,2013-06-05 07:29:00,
2013-06-05 03:35:00,58.9,56.9,30.10,SSE,151,0.0,0.0,93,0.00,,,0.00,Wunderground v.1.15,2013-06-05 07:35:00,
2013-06-05 03:41:00,58.9,56.9,30.10,SSE,151,0.0,0.0,93,0.00,,,0.00,Wunderground v.1.15,2013-06-05 07:41:00,
2013-06-05 03:47:00,58.8,56.8,30.10,SSE,151,0.0,0.0,93,0.00,,,0.00,Wunderground v.1.15,2013-06-05 07:47:00,
2013-06-05 03:53:00,58.7,56.7,30.10,SSE,151,0.0,0.0,93,0.00,,,0.00,Wunderground v.1.15,2013-06-05 07:53:00,
2013-06-05 03:59:00,58.6,56.6,30.10,SSE,151,0.0,0.0,93,0.00,,,0.00,Wunderground v.1.15,2013-06-05 07:59:00,
2013-06-05 04:05:00,58.4,56.4,30.10,SSE,151,0.0,0.0,93,0.00,,,0.00,Wunderground v.1.15,2013-06-05 08:05:00,
2013-06-05 04:10:00,58.3,56.0,30.10,SSE,151,0.0,0.0,92,0.00,,,0.00,Wunderground v.1.15,2013-06-05 08:10:00,
2013-06-05 04:17:00,58.1,55.8,30.11,SSE,151,0.0,0.0,92,0.00,,,0.00,Wunderground v.1.15,2013-06-05 08:17:00,
2013-06-05 04:22:00,58.0,56.0,30.11,SSE,151,0.0,0.0,93,0.00,,,0.00,Wunderground v.1.15,2013-06-05 08:22:00,
2013-06-05 04:28:00,57.9,55.9,30.11,SSE,151,0.0,0.0,93,0.00,,,0.00,Wunderground v.1.15,2013-06-05 08:28:00,
2013-06-05 04:33:00,57.8,55.8,30.11,SSE,151,0.0,0.0,93,0.00,,,0.00,Wunderground v.1.15,2013-06-05 08:33:00,
2013-06-05 04:39:00,57.8,55.8,30.11,SSE,151,0.0,0.0,93,0.00,,,0.00,Wunderground v.1.15,2013-06-05 08:39:00,
2013-06-05 04:45:00,57.9,55.9,30.11,SSE,151,0.0,0.0,93,0.00,,,0.00,Wunderground v.1.15,2013-06-05 08:45:00,
2013-06-05 04:51:00,57.9,55.9,30.12,SSE,151,0.0,1.0,93,0.00,,,0.00,Wunderground v.1.15,2013-06-05 08:51:00,
2013-06-05 04:57:00,57.9,56.2,30.12,SSE,151,1.0,2.0,94,0.00,,,0.00,Wunderground v.1.15,2013-06-05 08:57:00,
2013-06-05 05:02:00,58.0,56.3,30.12,SSE,151,1.0,2.0,94,0.00,,,0.00,Wunderground v.1.15,2013-06-05 09:02:00,
2013-06-05 05:08:00,58.0,56.3,30.12,SSE,151,1.0,2.0,94,0.00,,,0.00,Wunderground v.1.15,2013-06-05 09:08:00,
2013-06-05 05:13:00,58.0,56.3,30.12,SSE,151,1.0,2.0,94,0.00,,,0.00,Wunderground v.1.15,2013-06-05 09:13:00,
2013-06-05 05:18:00,58.0,56.3,30.12,SSE,151,1.0,2.0,94,0.00,,,0.00,Wunderground v.1.15,2013-06-05 09:18:00,
2013-06-05 05:24:00,58.0,56.3,30.12,SSE,151,1.0,2.0,94,0.00,,,0.00,Wunderground v.1.15,2013-06-05 09:24:00,
2013-06-05 05:30:00,58.0,56.3,30.12,SSE,151,1.0,2.0,94,0.00,,,0.00,Wunderground v.1.15,2013-06-05 09:30:00,
2013-06-05 05:36:00,57.9,56.2,30.12,SSE,151,1.0,2.0,94,0.00,,,0.00,Wunderground v.1.15,2013-06-05 09:36:00,
2013-06-05 05:42:00,57.8,55.8,30.12,SSE,151,1.0,2.0,93,0.00,,,0.00,Wunderground v.1.15,2013-06-05 09:42:00,
2013-06-05 05:48:00,57.9,56.2,30.13,SSE,151,1.0,2.0,94,0.00,,,0.00,Wunderground v.1.15,2013-06-05 09:48:00,
2013-06-05 05:54:00,57.8,55.8,30.13,SSE,151,1.0,2.0,93,0.00,,,0.00,Wunderground v.1.15,2013-06-05 09:54:00,
2013-06-05 05:59:00,57.8,56.1,30.13,SSE,151,1.0,2.0,94,0.00,,,0.00,Wunderground v.1.15,2013-06-05 09:59:00,
2013-06-05 06:05:00,57.7,55.7,30.14,SSE,151,1.0,2.0,93,0.00,,,0.00,Wunderground v.1.15,2013-06-05 10:05:00,
2013-06-05 06:11:00,57.9,55.9,30.15,North,3,2.0,4.0,93,0.00,,,0.00,Wunderground v.1.15,2013-06-05 10:11:00,
2013-06-05 06:17:00,58.6,56.6,30.15,NNW,345,3.0,4.0,93,0.00,,,0.00,Wunderground v.1.15,2013-06-05 10:17:00,
2013-06-05 06:23:00,59.1,56.8,30.15,North,355,2.0,4.0,92,0.00,,,0.00,Wunderground v.1.15,2013-06-05 10:23:00,
2013-06-05 06:29:00,59.4,57.1,30.14,NW,324,1.0,4.0,92,0.00,,,0.00,Wunderground v.1.15,2013-06-05 10:29:00,
2013-06-05 06:35:00,59.7,57.1,30.15,NW,324,0.0,2.0,91,0.00,,,0.00,Wunderground v.1.15,2013-06-05 10:35:00,
2013-06-05 06:40:00,59.9,57.3,30.15,NW,324,0.0,2.0,91,0.00,,,0.00,Wunderground v.1.15,2013-06-05 10:40:00,
2013-06-05 06:46:00,60.1,57.5,30.15,NW,324,0.0,2.0,91,0.00,,,0.00,Wunderground v.1.15,2013-06-05 10:46:00,
2013-06-05 06:52:00,60.3,57.4,30.15,NW,324,0.0,2.0,90,0.00,,,0.00,Wunderground v.1.15,2013-06-05 10:52:00,
2013-06-05 06:58:00,60.7,57.7,30.16,NW,324,0.0,2.0,90,0.00,,,0.00,Wunderground v.1.15,2013-06-05 10:58:00,
2013-06-05 07:04:00,61.0,57.7,30.16,NW,324,0.0,2.0,89,0.00,,,0.00,Wunderground v.1.15,2013-06-05 11:04:00,
2013-06-05 07:10:00,61.4,58.1,30.16,NW,324,0.0,2.0,89,0.00,,,0.00,Wunderground v.1.15,2013-06-05 11:10:00,
2013-06-05 07:16:00,61.9,58.6,30.15,NW,324,0.0,0.0,89,0.00,,,0.00,Wunderground v.1.15,2013-06-05 11:16:00,
2013-06-05 07:22:00,62.5,59.2,30.15,NW,324,0.0,0.0,89,0.00,,,0.00,Wunderground v.1.15,2013-06-05 11:22:00,
2013-06-05 07:27:00,63.1,59.8,30.15,NW,324,0.0,0.0,89,0.00,,,0.00,Wunderground v.1.15,2013-06-05 11:27:00,
2013-06-05 07:33:00,63.6,60.0,30.16,NW,324,0.0,0.0,88,0.00,,,0.00,Wunderground v.1.15,2013-06-05 11:33:00,
2013-06-05 07:39:00,64.2,60.2,30.16,NW,324,0.0,0.0,87,0.00,,,0.00,Wunderground v.1.15,2013-06-05 11:39:00,
2013-06-05 07:45:00,64.7,60.4,30.16,NW,324,0.0,1.0,86,0.00,,,0.00,Wunderground v.1.15,2013-06-05 11:45:00,
2013-06-05 07:51:00,65.3,60.7,30.17,NW,324,0.0,0.0,85,0.00,,,0.00,Wunderground v.1.15,2013-06-05 11:51:00,
2013-06-05 07:57:00,65.9,61.3,30.16,NW,324,0.0,0.0,85,0.00,,,0.00,Wunderground v.1.15,2013-06-05 11:57:00,
2013-06-05 08:02:00,66.7,62.0,30.16,NW,324,0.0,1.0,85,0.00,,,0.00,Wunderground v.1.15,2013-06-05 12:02:00,
2013-06-05 08:08:00,67.4,62.4,30.16,NW,324,0.0,1.0,84,0.00,,,0.00,Wunderground v.1.15,2013-06-05 12:08:00,
2013-06-05 08:14:00,68.0,62.6,30.16,NW,324,1.0,2.0,83,0.00,,,0.00,Wunderground v.1.15,2013-06-05 12:14:00,
2013-06-05 08:20:00,68.8,63.4,30.16,NW,326,1.0,2.0,83,0.00,,,0.00,Wunderground v.1.15,2013-06-05 12:20:00,
2013-06-05 08:26:00,69.7,64.0,30.16,ESE,109,0.0,2.0,82,0.00,,,0.00,Wunderground v.1.15,2013-06-05 12:26:00,
2013-06-05 08:31:00,70.6,63.8,30.16,East,88,1.0,1.0,79,0.00,,,0.00,Wunderground v.1.15,2013-06-05 12:31:00,
2013-06-05 08:37:00,71.0,63.1,30.16,East,80,1.0,4.0,76,0.00,,,0.00,Wunderground v.1.15,2013-06-05 12:37:00,
2013-06-05 08:43:00,71.1,62.4,30.16,East,95,2.0,4.0,74,0.00,,,0.00,Wunderground v.1.15,2013-06-05 12:43:00,
2013-06-05 08:49:00,70.8,61.7,30.16,East,95,3.0,4.0,73,0.00,,,0.00,Wunderground v.1.15,2013-06-05 12:49:00,
2013-06-05 08:54:00,70.8,61.7,30.16,East,89,3.0,4.0,73,0.00,,,0.00,Wunderground v.1.15,2013-06-05 12:54:00,
2013-06-05 09:00:00,71.0,62.3,30.15,East,82,3.0,4.0,74,0.00,,,0.00,Wunderground v.1.15,2013-06-05 13:00:00,
2013-06-05 09:05:00,71.3,62.2,30.16,ENE,57,3.0,5.0,73,0.00,,,0.00,Wunderground v.1.15,2013-06-05 13:05:00,
2013-06-05 09:11:00,71.5,62.0,30.16,East,95,3.0,3.0,72,0.00,,,0.00,Wunderground v.1.15,2013-06-05 13:11:00,
2013-06-05 09:17:00,71.8,61.9,30.16,East,80,3.0,5.0,71,0.00,,,0.00,Wunderground v.1.15,2013-06-05 13:17:00,
2013-06-05 09:23:00,71.7,61.0,30.16,ENE,74,3.0,5.0,69,0.00,,,0.00,Wunderground v.1.15,2013-06-05 13:23:00,
2013-06-05 09:29:00,72.0,61.3,30.17,East,79,3.0,5.0,69,0.00,,,0.00,Wunderground v.1.15,2013-06-05 13:29:00,
2013-06-05 09:35:00,72.0,60.9,30.17,ENE,72,3.0,5.0,68,0.00,,,0.00,Wunderground v.1.15,2013-06-05 13:35:00,
2013-06-05 09:41:00,72.0,60.9,30.16,ENE,72,3.0,5.0,68,0.00,,,0.00,Wunderground v.1.15,2013-06-05 13:41:00,
2013-06-05 09:47:00,72.1,61.0,30.16,ENE,78,3.0,5.0,68,0.00,,,0.00,Wunderground v.1.15,2013-06-05 13:47:00,
2013-06-05 09:52:00,72.2,61.0,30.17,East,84,3.0,5.0,68,0.00,,,0.00,Wunderground v.1.15,2013-06-05 13:52:00,
2013-06-05 09:58:00,72.0,60.4,30.17,ENE,74,3.0,5.0,67,0.00,,,0.00,Wunderground v.1.15,2013-06-05 13:58:00,
2013-06-05 10:03:00,72.1,61.0,30.16,ENE,74,3.0,5.0,68,0.00,,,0.00,Wunderground v.1.15,2013-06-05 14:03:00,
2013-06-05 10:09:00,72.4,60.4,30.16,East,80,3.0,5.0,66,0.00,,,0.00,Wunderground v.1.15,2013-06-05 14:09:00,
2013-06-05 10:15:00,72.4,60.8,30.16,East,79,3.0,5.0,67,0.00,,,0.00,Wunderground v.1.15,2013-06-05 14:15:00,
2013-06-05 10:20:00,72.7,60.7,30.16,East,82,3.0,5.0,66,0.00,,,0.00,Wunderground v.1.15,2013-06-05 14:20:00,
2013-06-05 10:26:00,73.0,60.5,30.16,East,90,3.0,5.0,65,0.00,,,0.00,Wunderground v.1.15,2013-06-05 14:26:00,
2013-06-05 10:32:00,73.2,60.3,30.16,East,80,2.0,5.0,64,0.00,,,0.00,Wunderground v.1.15,2013-06-05 14:32:00,
2013-06-05 10:38:00,73.4,60.5,30.15,ENE,65,3.0,5.0,64,0.00,,,0.00,Wunderground v.1.15,2013-06-05 14:38:00,
2013-06-05 10:44:00,74.0,60.6,30.15,East,84,3.0,5.0,63,0.00,,,0.00,Wunderground v.1.15,2013-06-05 14:44:00,
2013-06-05 10:50:00,74.5,60.6,30.15,ENE,68,3.0,5.0,62,0.00,,,0.00,Wunderground v.1.15,2013-06-05 14:50:00,
2013-06-05 10:56:00,75.0,60.6,30.15,East,92,3.0,5.0,61,0.00,,,0.00,Wunderground v.1.15,2013-06-05 14:56:00,
2013-06-05 11:02:00,75.4,60.5,30.15,ENE,70,3.0,5.0,60,0.00,,,0.00,Wunderground v.1.15,2013-06-05 15:02:00,
2013-06-05 11:08:00,75.4,60.1,30.15,ENE,78,3.0,5.0,59,0.00,,,0.00,Wunderground v.1.15,2013-06-05 15:08:00,
2013-06-05 11:14:00,75.7,59.9,30.15,East,81,3.0,5.0,58,0.00,,,0.00,Wunderground v.1.15,2013-06-05 15:14:00,
2013-06-05 11:20:00,76.1,60.2,30.15,ENE,72,3.0,5.0,58,0.00,,,0.00,Wunderground v.1.15,2013-06-05 15:20:00,
2013-06-05 11:26:00,76.2,59.9,30.15,ENE,73,3.0,5.0,57,0.00,,,0.00,Wunderground v.1.15,2013-06-05 15:26:00,
2013-06-05 11:32:00,76.3,59.9,30.15,ENE,70,3.0,5.0,57,0.00,,,0.00,Wunderground v.1.15,2013-06-05 15:32:00,
2013-06-05 11:37:00,76.6,61.2,30.14,East,88,3.0,5.0,59,0.00,,,0.00,Wunderground v.1.15,2013-06-05 15:37:00,
2013-06-05 11:43:00,76.6,59.7,30.14,East,91,3.0,5.0,56,0.00,,,0.00,Wunderground v.1.15,2013-06-05 15:43:00,
2013-06-05 11:49:00,76.7,60.8,30.14,East,92,3.0,5.0,58,0.00,,,0.00,Wunderground v.1.15,2013-06-05 15:49:00,
2013-06-05 11:54:00,77.0,60.1,30.14,ENE,78,3.0,5.0,56,0.00,,,0.00,Wunderground v.1.15,2013-06-05 15:54:00,
2013-06-05 12:00:00,77.1,59.7,30.14,ENE,75,3.0,5.0,55,0.00,,,0.00,Wunderground v.1.15,2013-06-05 16:00:00,
2013-06-05 12:06:00,77.5,61.6,30.14,ENE,71,2.0,5.0,58,0.00,,,0.00,Wunderground v.1.15,2013-06-05 16:06:00,
2013-06-05 12:12:00,77.7,61.3,30.14,East,80,2.0,5.0,57,0.00,,,0.00,Wunderground v.1.15,2013-06-05 16:12:00,
2013-06-05 12:18:00,77.5,60.6,30.14,ENE,74,2.0,5.0,56,0.00,,,0.00,Wunderground v.1.15,2013-06-05 16:18:00,
2013-06-05 12:23:00,77.7,60.8,30.14,East,81,2.0,5.0,56,0.00,,,0.00,Wunderground v.1.15,2013-06-05 16:23:00,
2013-06-05 12:29:00,77.8,61.3,30.14,East,80,2.0,5.0,57,0.00,,,0.00,Wunderground v.1.15,2013-06-05 16:29:00,
2013-06-05 12:35:00,78.0,61.5,30.13,East,95,2.0,5.0,57,0.00,,,0.00,Wunderground v.1.15,2013-06-05 16:35:00,
2013-06-05 12:41:00,78.1,61.1,30.13,ENE,64,2.0,5.0,56,0.00,,,0.00,Wunderground v.1.15,2013-06-05 16:41:00,
2013-06-05 12:47:00,78.4,59.9,30.13,ENE,71,2.0,5.0,53,0.00,,,0.00,Wunderground v.1.15,2013-06-05 16:47:00,
2013-06-05 12:53:00,77.9,58.3,30.13,ENE,71,2.0,5.0,51,0.00,,,0.00,Wunderground v.1.15,2013-06-05 16:53:00,
2013-06-05 12:59:00,77.5,60.1,30.13,ENE,71,2.0,5.0,55,0.00,,,0.00,Wunderground v.1.15,2013-06-05 16:59:00,
2013-06-05 13:05:00,77.9,58.9,30.13,ENE,71,2.0,2.0,52,0.00,,,0.00,Wunderground v.1.15,2013-06-05 17:05:00,
2013-06-05 13:11:00,78.3,58.1,30.13,ENE,72,2.0,2.0,50,0.00,,,0.00,Wunderground v.1.15,2013-06-05 17:11:00,
2013-06-05 13:17:00,78.3,58.7,30.12,ENE,72,2.0,3.0,51,0.00,,,0.00,Wunderground v.1.15,2013-06-05 17:17:00,
2013-06-05 13:23:00,77.8,58.2,30.12,SE,126,2.0,3.0,51,0.00,,,0.00,Wunderground v.1.15,2013-06-05 17:23:00,
2013-06-05 17:42:00,76.2,59.9,30.08,SE,140,2.0,3.0,57,0.00,,,0.00,Wunderground v.1.15,2013-06-05 21:42:00,
2013-06-05 17:48:00,76.2,58.9,30.08,SSW,198,2.0,3.0,55,0.00,,,0.00,Wunderground v.1.15,2013-06-05 21:48:00,
2013-06-05 17:54:00,76.2,59.9,30.08,SE,136,2.0,3.0,57,0.00,,,0.00,Wunderground v.1.15,2013-06-05 21:54:00,
2013-06-05 18:00:00,76.2,60.3,30.08,SE,128,2.0,3.0,58,0.00,,,0.00,Wunderground v.1.15,2013-06-05 22:00:00,
2013-06-05 18:06:00,76.1,60.2,30.08,SSE,157,2.0,4.0,58,0.00,,,0.00,Wunderground v.1.15,2013-06-05 22:06:00,
2013-06-05 18:12:00,76.1,60.7,30.08,SSE,157,2.0,4.0,59,0.00,,,0.00,Wunderground v.1.15,2013-06-05 22:12:00,
2013-06-05 18:18:00,76.0,59.7,30.08,SSE,165,1.0,4.0,57,0.00,,,0.00,Wunderground v.1.15,2013-06-05 22:18:00,
2013-06-05 18:24:00,76.0,59.7,30.07,South,169,2.0,4.0,57,0.00,,,0.00,Wunderground v.1.15,2013-06-05 22:24:00,
2013-06-05 18:29:00,75.9,60.1,30.07,South,171,2.0,4.0,58,0.00,,,0.00,Wunderground v.1.15,2013-06-05 22:29:00,
2013-06-05 18:35:00,75.8,60.0,30.07,SE,139,2.0,4.0,58,0.00,,,0.00,Wunderground v.1.15,2013-06-05 22:35:00,
2013-06-05 18:41:00,75.7,59.9,30.07,South,186,1.0,4.0,58,0.00,,,0.00,Wunderground v.1.15,2013-06-05 22:41:00,
2013-06-05 18:47:00,75.5,61.6,30.07,SSW,198,2.0,4.0,62,0.00,,,0.00,Wunderground v.1.15,2013-06-05 22:47:00,
2013-06-05 18:53:00,75.3,61.4,30.07,SSE,168,3.0,5.0,62,0.00,,,0.00,Wunderground v.1.15,2013-06-05 22:53:00,
2013-06-05 18:59:00,75.0,60.6,30.07,SSE,162,2.0,5.0,61,0.00,,,0.00,Wunderground v.1.15,2013-06-05 22:59:00,
2013-06-05 19:04:00,74.8,60.9,30.07,SSE,156,2.0,6.0,62,0.00,,,0.00,Wunderground v.1.15,2013-06-05 23:04:00,
2013-06-05 19:10:00,74.6,59.8,30.06,South,186,3.0,4.0,60,0.00,,,0.00,Wunderground v.1.15,2013-06-05 23:10:00,
2013-06-05 19:16:00,74.3,59.5,30.06,SSW,203,3.0,4.0,60,0.00,,,0.00,Wunderground v.1.15,2013-06-05 23:16:00,
2013-06-05 19:22:00,74.2,60.3,30.06,South,173,3.0,4.0,62,0.00,,,0.00,Wunderground v.1.15,2013-06-05 23:22:00,
2013-06-05 19:27:00,74.1,61.1,30.06,South,185,2.0,4.0,64,0.00,,,0.00,Wunderground v.1.15,2013-06-05 23:27:00,
2013-06-05 19:32:00,74.0,60.6,30.06,South,185,2.0,5.0,63,0.00,,,0.00,Wunderground v.1.15,2013-06-05 23:32:00,
2013-06-05 19:38:00,73.8,60.0,30.06,SSE,151,3.0,5.0,62,0.00,,,0.00,Wunderground v.1.15,2013-06-05 23:38:00,
2013-06-05 19:44:00,73.6,60.2,30.06,South,170,3.0,4.0,63,0.00,,,0.00,Wunderground v.1.15,2013-06-05 23:44:00,
2013-06-05 19:50:00,73.4,59.1,30.06,SSW,207,3.0,5.0,61,0.00,,,0.00,Wunderground v.1.15,2013-06-05 23:50:00,
2013-06-05 19:55:00,73.4,60.5,30.06,ESE,115,3.0,8.0,64,0.00,,,0.00,Wunderground v.1.15,2013-06-05 23:55:00,
2013-06-05 20:01:00,73.2,59.8,30.06,SSE,161,3.0,4.0,63,0.00,,,0.00,Wunderground v.1.15,2013-06-06 00:01:00,
2013-06-05 20:06:00,73.0,58.8,30.06,SSW,209,3.0,6.0,61,0.00,,,0.00,Wunderground v.1.15,2013-06-06 00:06:00,
2013-06-05 20:12:00,72.9,59.1,30.06,SSW,213,3.0,5.0,62,0.00,,,0.00,Wunderground v.1.15,2013-06-06 00:12:00,
2013-06-05 20:18:00,72.8,58.6,30.05,South,174,3.0,7.0,61,0.00,,,0.00,Wunderground v.1.15,2013-06-06 00:18:00,
2013-06-05 20:24:00,72.7,58.9,30.05,South,174,4.0,7.0,62,0.00,,,0.00,Wunderground v.1.15,2013-06-06 00:24:00,
2013-06-05 20:30:00,72.5,58.7,30.05,South,173,4.0,7.0,62,0.00,,,0.00,Wunderground v.1.15,2013-06-06 00:30:00,
2013-06-05 20:35:00,72.4,59.1,30.05,SSW,210,4.0,5.0,63,0.00,,,0.00,Wunderground v.1.15,2013-06-06 00:35:00,
2013-06-05 20:41:00,72.3,58.1,30.05,South,180,4.0,5.0,61,0.00,,,0.00,Wunderground v.1.15,2013-06-06 00:41:00,
2013-06-05 20:47:00,72.2,58.0,30.05,South,176,4.0,9.0,61,0.00,,,0.00,Wunderground v.1.15,2013-06-06 00:47:00,
2013-06-05 20:53:00,72.2,58.5,30.05,SSE,157,4.0,10.0,62,0.00,,,0.00,Wunderground v.1.15,2013-06-06 00:53:00,
2013-06-05 20:59:00,72.1,58.4,30.05,SSE,160,4.0,10.0,62,0.00,,,0.00,Wunderground v.1.15,2013-06-06 00:59:00,
2013-06-05 21:05:00,72.1,58.8,30.05,SSE,167,4.0,6.0,63,0.00,,,0.00,Wunderground v.1.15,2013-06-06 01:05:00,
2013-06-05 21:10:00,72.0,59.6,30.06,SSE,159,4.0,6.0,65,0.00,,,0.00,Wunderground v.1.15,2013-06-06 01:10:00,
2013-06-05 21:16:00,71.8,58.1,30.06,SW,215,4.0,6.0,62,0.00,,,0.00,Wunderground v.1.15,2013-06-06 01:16:00,
2013-06-05 21:21:00,71.7,58.9,30.06,SE,146,4.0,5.0,64,0.00,,,0.00,Wunderground v.1.15,2013-06-06 01:21:00,
2013-06-05 21:27:00,71.6,58.3,30.06,SSW,209,4.0,7.0,63,0.00,,,0.00,Wunderground v.1.15,2013-06-06 01:27:00,
2013-06-05 21:33:00,71.5,58.2,30.06,SSW,203,3.0,5.0,63,0.00,,,0.00,Wunderground v.1.15,2013-06-06 01:33:00,
2013-06-05 21:38:00,71.5,57.8,30.06,South,176,4.0,8.0,62,0.00,,,0.00,Wunderground v.1.15,2013-06-06 01:38:00,
2013-06-05 21:44:00,71.4,57.7,30.06,South,174,3.0,7.0,62,0.00,,,0.00,Wunderground v.1.15,2013-06-06 01:44:00,
2013-06-05 21:50:00,71.3,58.5,30.07,SE,142,3.0,7.0,64,0.00,,,0.00,Wunderground v.1.15,2013-06-06 01:50:00,
2013-06-05 21:56:00,71.1,57.4,30.07,SSW,193,3.0,8.0,62,0.00,,,0.00,Wunderground v.1.15,2013-06-06 01:56:00,
2013-06-05 22:02:00,71.0,57.8,30.07,SSW,211,3.0,5.0,63,0.00,,,0.00,Wunderground v.1.15,2013-06-06 02:02:00,
2013-06-05 22:08:00,70.8,57.1,30.07,SSE,160,3.0,9.0,62,0.00,,,0.00,Wunderground v.1.15,2013-06-06 02:08:00,
2013-06-05 22:14:00,70.7,57.5,30.07,South,176,3.0,3.0,63,0.00,,,0.00,Wunderground v.1.15,2013-06-06 02:14:00,
2013-06-05 22:20:00,70.7,57.5,30.07,SSW,210,3.0,4.0,63,0.00,,,0.00,Wunderground v.1.15,2013-06-06 02:20:00,
2013-06-05 22:25:00,70.6,57.8,30.07,South,179,3.0,6.0,64,0.00,,,0.00,Wunderground v.1.15,2013-06-06 02:25:00,
2013-06-05 22:31:00,70.4,57.2,30.07,SSW,209,3.0,4.0,63,0.00,,,0.00,Wunderground v.1.15,2013-06-06 02:31:00,
2013-06-05 22:37:00,70.4,58.1,30.07,SSE,168,2.0,4.0,65,0.00,,,0.00,Wunderground v.1.15,2013-06-06 02:37:00,
2013-06-05 22:43:00,70.2,57.9,30.07,SSE,164,2.0,4.0,65,0.00,,,0.00,Wunderground v.1.15,2013-06-06 02:43:00,
2013-06-05 22:49:00,70.1,57.8,30.07,South,186,2.0,6.0,65,0.00,,,0.00,Wunderground v.1.15,2013-06-06 02:49:00,
2013-06-05 22:55:00,69.9,57.6,30.07,WSW,244,2.0,5.0,65,0.00,,,0.00,Wunderground v.1.15,2013-06-06 02:55:00,
2013-06-05 23:01:00,69.7,57.4,30.07,SW,228,3.0,3.0,65,0.00,,,0.00,Wunderground v.1.15,2013-06-06 03:01:00,
2013-06-05 23:07:00,69.7,57.4,30.07,South,188,3.0,5.0,65,0.00,,,0.00,Wunderground v.1.15,2013-06-06 03:07:00,
2013-06-05 23:12:00,69.6,57.3,30.07,SSE,159,3.0,5.0,65,0.00,,,0.00,Wunderground v.1.15,2013-06-06 03:12:00,
2013-06-05 23:17:00,69.5,57.2,30.08,South,174,2.0,8.0,65,0.00,,,0.00,Wunderground v.1.15,2013-06-06 03:17:00,
2013-06-05 23:23:00,69.5,57.6,30.08,South,182,2.0,5.0,66,0.00,,,0.00,Wunderground v.1.15,2013-06-06 03:23:00,
2013-06-05 23:29:00,69.4,57.5,30.08,South,169,1.0,5.0,66,0.00,,,0.00,Wunderground v.1.15,2013-06-06 03:29:00,
2013-06-05 23:34:00,69.3,57.5,30.08,South,169,1.0,4.0,66,0.00,,,0.00,Wunderground v.1.15,2013-06-06 03:34:00,
2013-06-05 23:39:00,69.1,57.7,30.08,South,182,1.0,7.0,67,0.00,,,0.00,Wunderground v.1.15,2013-06-06 03:39:00,
2013-06-05 23:45:00,68.9,57.5,30.08,West,261,1.0,4.0,67,0.00,,,0.00,Wunderground v.1.15,2013-06-06 03:45:00,
2013-06-05 23:50:00,68.6,57.2,30.08,West,261,1.0,1.0,67,0.00,,,0.00,Wunderground v.1.15,2013-06-06 03:50:00,
2013-06-05 23:56:00,68.5,57.1,30.08,WSW,244,0.0,4.0,67,0.00,,,0.00,Wunderground v.1.15,2013-06-06 03:56:00,